Time;durP1;ratioP1;P1;durP2;ratioP2;P2;SDS_P1;SDS_P2;PMS_P1;PMS_P2;Temp;Humidity;BMP_temperature;BMP_pressure;BME280_temperature;BME280_humidity;BME280_pressure;Samples;Min_cycle;Max_cycle;Signal;HPM_P1;HPM_P2
2022/10/02 00:01:48;;;;;;;1.08;0.73;;;;;;;;;;10402989;28;20219;-78
2022/10/02 00:06:50;;;;;;;1.98;0.50;;;;;;;;;;10404641;28;20684;-79
2022/10/02 00:11:55;;;;;;;4.75;0.68;;;;;;;;;;10407581;28;20222;-78
2022/10/02 00:16:59;;;;;;;1.98;0.40;;;;;;;;;;10401013;28;20313;-78
2022/10/02 00:22:06;;;;;;;2.20;0.50;;;;;;;;;;10408405;28;20220;-78
2022/10/02 00:27:14;;;;;;;0.30;0.30;;;;;;;;;;10408264;28;20221;-78
2022/10/02 00:32:24;;;;;;;1.08;0.38;;;;;;;;;;10407609;28;20254;-78
2022/10/02 00:37:37;;;;;;;7.53;0.88;;;;;;;;;;10408013;28;20229;-78
2022/10/02 00:42:41;;;;;;;3.90;0.60;;;;;;;;;;10415782;28;20219;-78
2022/10/02 00:47:45;;;;;;;3.83;0.60;;;;;;;;;;10412194;28;20291;-79
2022/10/02 00:53:06;;;;;;;5.20;0.50;;;;;;;;;;10407916;28;20246;-79
2022/10/02 00:58:27;;;;;;;2.83;0.60;;;;;;;;;;10402725;28;20218;-78
2022/10/02 01:03:37;;;;;;;0.77;0.40;;;;;;;;;;10405199;28;20752;-77
2022/10/02 01:08:38;;;;;;;3.10;1.20;;;;;;;;;;10406233;28;20223;-78
2022/10/02 01:13:39;;;;;;;4.13;0.90;;;;;;;;;;10399304;28;20223;-77
2022/10/02 01:18:41;;;;;;;0.35;0.32;;;;;;;;;;10408789;28;21026;-78
2022/10/02 01:23:56;;;;;;;0.77;0.75;;;;;;;;;;10405205;28;20219;-79
2022/10/02 01:28:57;;;;;;;0.85;0.55;;;;;;;;;;10404813;28;20601;-78
2022/10/02 01:33:58;;;;;;;0.85;0.85;;;;;;;;;;10407324;28;20224;-77
2022/10/02 01:39:00;;;;;;;0.80;0.77;;;;;;;;;;10408583;28;20277;-78
2022/10/02 01:44:01;;;;;;;4.97;0.50;;;;;;;;;;10406849;28;20227;-79
2022/10/02 01:49:06;;;;;;;3.33;0.60;;;;;;;;;;10413476;28;20226;-80
2022/10/02 01:54:33;;;;;;;1.85;0.90;;;;;;;;;;10415990;28;20222;-79
2022/10/02 01:59:53;;;;;;;0.40;0.40;;;;;;;;;;10385851;28;20243;-79
2022/10/02 02:04:57;;;;;;;8.57;0.93;;;;;;;;;;10408305;28;20709;-79
2022/10/02 02:10:06;;;;;;;0.70;0.70;;;;;;;;;;10398641;28;20234;-79
2022/10/02 02:15:09;;;;;;;3.22;0.60;;;;;;;;;;10391149;28;20215;-78
2022/10/02 02:20:17;;;;;;;3.03;0.63;;;;;;;;;;10407997;28;20195;-79
2022/10/02 02:25:20;;;;;;;3.30;0.77;;;;;;;;;;10400814;28;20179;-79
2022/10/02 02:30:22;;;;;;;0.30;0.30;;;;;;;;;;10403844;28;20701;-80
2022/10/02 02:35:28;;;;;;;2.90;0.38;;;;;;;;;;10417033;28;20313;-81
2022/10/02 02:40:31;;;;;;;0.40;0.15;;;;;;;;;;10423268;28;20219;-80
2022/10/02 02:45:35;;;;;;;0.35;0.10;;;;;;;;;;10424600;28;20214;-82
2022/10/02 02:50:42;;;;;;;0.75;0.20;;;;;;;;;;10414226;28;20207;-79
2022/10/02 02:56:12;;;;;;;0.40;0.40;;;;;;;;;;10421975;28;20230;-80
2022/10/02 03:01:13;;;;;;;0.40;0.20;;;;;;;;;;10418164;28;20223;-80
2022/10/02 03:06:15;;;;;;;2.53;0.40;;;;;;;;;;10413257;28;20271;-79
2022/10/02 03:11:25;;;;;;;2.70;0.47;;;;;;;;;;10394385;28;20223;-80
2022/10/02 03:16:32;;;;;;;3.75;0.73;;;;;;;;;;10411541;28;20249;-79
2022/10/02 03:21:33;;;;;;;6.07;0.70;;;;;;;;;;10417972;28;20804;-79
2022/10/02 03:26:40;;;;;;;2.42;0.40;;;;;;;;;;10404129;28;20281;-79
2022/10/02 03:31:41;;;;;;;2.15;0.60;;;;;;;;;;10405870;28;20675;-78
2022/10/02 03:36:42;;;;;;;1.10;0.82;;;;;;;;;;10408036;28;20223;-78
2022/10/02 03:41:43;;;;;;;8.18;0.70;;;;;;;;;;10419748;28;20218;-81
2022/10/02 03:46:44;;;;;;;0.70;0.70;;;;;;;;;;10415646;28;20439;-80
2022/10/02 03:51:45;;;;;;;0.50;0.50;;;;;;;;;;10434391;28;20215;-80
2022/10/02 03:56:54;;;;;;;2.63;0.73;;;;;;;;;;10407810;28;20219;-80
2022/10/02 04:01:57;;;;;;;0.95;0.50;;;;;;;;;;10419013;28;20215;-78
2022/10/02 04:07:03;;;;;;;1.85;0.73;;;;;;;;;;10418559;28;20731;-78
2022/10/02 04:12:10;;;;;;;3.63;0.95;;;;;;;;;;10412636;28;20277;-78
2022/10/02 04:17:15;;;;;;;3.85;0.88;;;;;;;;;;10394291;28;20258;-78
2022/10/02 04:22:22;;;;;;;1.75;0.95;;;;;;;;;;10404736;28;20238;-78
2022/10/02 04:27:52;;;;;;;0.70;0.70;;;;;;;;;;10403555;28;20246;-78
2022/10/02 04:32:55;;;;;;;2.15;1.00;;;;;;;;;;10322318;28;20248;-80
2022/10/02 04:38:15;;;;;;;0.82;0.60;;;;;;;;;;10408737;28;20219;-78
2022/10/02 04:43:29;;;;;;;1.75;0.75;;;;;;;;;;10403298;28;20687;-81
2022/10/02 04:48:39;;;;;;;0.50;0.50;;;;;;;;;;10409048;28;20219;-80
2022/10/02 04:53:58;;;;;;;3.90;1.67;;;;;;;;;;10383402;28;20229;-80
2022/10/02 04:59:07;;;;;;;5.10;2.13;;;;;;;;;;10398906;28;20224;-80
2022/10/02 05:04:20;;;;;;;5.15;1.50;;;;;;;;;;10380062;28;20211;-78
2022/10/02 05:09:21;;;;;;;2.00;1.75;;;;;;;;;;10395056;28;20266;-77
2022/10/02 05:14:41;;;;;;;3.08;1.98;;;;;;;;;;10402197;28;20757;-78
2022/10/02 05:20:01;;;;;;;8.73;2.53;;;;;;;;;;10398300;28;20523;-78
2022/10/02 05:25:05;;;;;;;1.35;1.35;;;;;;;;;;10397413;28;20215;-78
2022/10/02 05:30:08;;;;;;;8.63;2.30;;;;;;;;;;10364130;28;20243;-77
2022/10/02 05:35:12;;;;;;;5.18;2.35;;;;;;;;;;10397303;28;20264;-78
2022/10/02 05:40:17;;;;;;;3.22;2.70;;;;;;;;;;10403767;28;20219;-78
2022/10/02 05:45:23;;;;;;;3.17;2.60;;;;;;;;;;10400832;28;20270;-78
2022/10/02 05:50:28;;;;;;;2.55;2.35;;;;;;;;;;10406435;28;20199;-79
2022/10/02 05:55:48;;;;;;;8.32;3.08;;;;;;;;;;10400138;28;20272;-78
2022/10/02 06:00:56;;;;;;;4.10;2.65;;;;;;;;;;10388750;28;20242;-77
2022/10/02 06:06:02;;;;;;;3.63;2.50;;;;;;;;;;10385208;28;20215;-79
2022/10/02 06:11:07;;;;;;;2.67;2.00;;;;;;;;;;10380035;28;20227;-77
2022/10/02 06:16:16;;;;;;;3.03;2.80;;;;;;;;;;10387444;28;20223;-78
2022/10/02 06:21:25;;;;;;;3.33;2.97;;;;;;;;;;10394070;28;20273;-78
2022/10/02 06:26:35;;;;;;;9.85;3.50;;;;;;;;;;10383902;28;20212;-77
2022/10/02 06:31:43;;;;;;;2.65;2.55;;;;;;;;;;10396247;28;20222;-77
2022/10/02 06:36:54;;;;;;;2.50;2.40;;;;;;;;;;10393920;28;20317;-78
2022/10/02 06:42:19;;;;;;;2.63;2.63;;;;;;;;;;10397403;28;20214;-77
2022/10/02 06:47:39;;;;;;;6.30;2.17;;;;;;;;;;10379241;28;20219;-77
2022/10/02 06:52:49;;;;;;;2.28;2.17;;;;;;;;;;10393520;28;20218;-79
2022/10/02 06:58:02;;;;;;;3.70;2.13;;;;;;;;;;10386188;28;20677;-78
2022/10/02 07:03:22;;;;;;;5.63;2.67;;;;;;;;;;10397858;28;20603;-78
2022/10/02 07:08:36;;;;;;;2.40;2.20;;;;;;;;;;10398149;28;20218;-78
2022/10/02 07:13:37;;;;;;;2.60;2.42;;;;;;;;;;10402077;28;20817;-78
2022/10/02 07:18:46;;;;;;;6.13;2.58;;;;;;;;;;10412426;28;20302;-77
2022/10/02 07:23:53;;;;;;;7.28;2.92;;;;;;;;;;10410117;28;20211;-77
2022/10/02 07:29:07;;;;;;;9.00;3.13;;;;;;;;;;10390058;28;20238;-81
2022/10/02 07:34:20;;;;;;;6.35;2.95;;;;;;;;;;10403692;28;20683;-78
2022/10/02 07:39:30;;;;;;;5.25;3.35;;;;;;;;;;10397488;28;20215;-81
2022/10/02 07:44:43;;;;;;;2.97;2.78;;;;;;;;;;10403529;28;20272;-79
2022/10/02 07:49:49;;;;;;;7.30;2.92;;;;;;;;;;10405709;28;20223;-81
2022/10/02 07:55:07;;;;;;;4.25;3.30;;;;;;;;;;10401885;28;20203;-79
2022/10/02 08:00:11;;;;;;;6.05;2.92;;;;;;;;;;10406090;28;20221;-79
2022/10/02 08:05:21;;;;;;;4.68;3.15;;;;;;;;;;10381494;28;20306;-79
2022/10/02 08:10:24;;;;;;;7.15;3.03;;;;;;;;;;10392868;28;20231;-79
2022/10/02 08:15:28;;;;;;;10.32;3.42;;;;;;;;;;10376817;28;20263;-79
2022/10/02 08:20:37;;;;;;;7.68;2.65;;;;;;;;;;10395843;28;20215;-79
2022/10/02 08:25:42;;;;;;;2.95;2.50;;;;;;;;;;10394060;28;21148;-78
2022/10/02 08:30:43;;;;;;;5.03;2.55;;;;;;;;;;10382068;28;20660;-78
2022/10/02 08:35:51;;;;;;;5.10;2.28;;;;;;;;;;10401561;28;20249;-78
2022/10/02 08:41:19;;;;;;;5.55;2.20;;;;;;;;;;10397453;28;20230;-79
2022/10/02 08:46:39;;;;;;;2.42;2.28;;;;;;;;;;10400131;28;20318;-79
2022/10/02 08:51:46;;;;;;;4.65;2.05;;;;;;;;;;10397480;28;20234;-78
2022/10/02 08:56:54;;;;;;;4.28;2.50;;;;;;;;;;10366228;28;20226;-79
2022/10/02 09:02:15;;;;;;;2.05;1.83;;;;;;;;;;10365422;28;20269;-77
2022/10/02 09:07:29;;;;;;;7.53;1.83;;;;;;;;;;10383083;28;20322;-78
2022/10/02 09:12:43;;;;;;;3.97;1.17;;;;;;;;;;10338107;28;20227;-79
2022/10/02 09:17:45;;;;;;;4.82;1.13;;;;;;;;;;10342506;28;20216;-79
2022/10/02 09:23:09;;;;;;;4.80;1.35;;;;;;;;;;10361776;28;20703;-78
2022/10/02 09:28:10;;;;;;;1.48;1.40;;;;;;;;;;10365689;28;20827;-79
2022/10/02 09:33:32;;;;;;;5.07;1.35;;;;;;;;;;10344576;28;20768;-79
2022/10/02 09:38:46;;;;;;;1.80;1.10;;;;;;;;;;10357022;28;21112;-79
2022/10/02 09:44:06;;;;;;;3.88;1.58;;;;;;;;;;10349258;28;23702;-79
2022/10/02 09:49:15;;;;;;;3.90;1.48;;;;;;;;;;10347790;28;20231;-78
2022/10/02 09:54:22;;;;;;;8.02;1.60;;;;;;;;;;10349705;28;20996;-77
2022/10/02 09:59:47;;;;;;;3.53;1.20;;;;;;;;;;10313058;28;20367;-78
2022/10/02 10:05:07;;;;;;;2.35;1.13;;;;;;;;;;10323420;28;20215;-78
2022/10/02 10:10:28;;;;;;;2.00;1.50;;;;;;;;;;10371274;28;20237;-78
2022/10/02 10:15:48;;;;;;;4.20;0.90;;;;;;;;;;10359944;28;20308;-78
2022/10/02 10:21:08;;;;;;;5.40;1.50;;;;;;;;;;10386838;28;20222;-78
2022/10/02 10:26:32;;;;;;;2.05;1.23;;;;;;;;;;10388760;28;20245;-79
2022/10/02 10:32:01;;;;;;;3.55;0.80;;;;;;;;;;10364904;28;20276;-79
2022/10/02 10:43:02;;;;;;;0.82;0.82;;;;;;;;;;10345902;28;23468;-79
2022/10/02 10:48:12;;;;;;;2.03;1.25;;;;;;;;;;10227088;28;20759;-79
2022/10/02 10:53:32;;;;;;;1.13;0.70;;;;;;;;;;10368747;28;20215;-79
2022/10/02 10:58:43;;;;;;;2.20;0.75;;;;;;;;;;10351202;28;20216;-79
2022/10/02 11:03:58;;;;;;;1.95;0.82;;;;;;;;;;10336519;28;20332;-79
2022/10/02 11:09:21;;;;;;;2.90;1.05;;;;;;;;;;10326573;28;20314;-77
2022/10/02 11:14:41;;;;;;;4.53;0.93;;;;;;;;;;10336485;28;20246;-79
2022/10/02 11:19:48;;;;;;;3.90;0.80;;;;;;;;;;10347596;28;20727;-78
2022/10/02 11:24:49;;;;;;;0.82;0.50;;;;;;;;;;10350374;28;20218;-78
2022/10/02 11:30:04;;;;;;;2.47;0.60;;;;;;;;;;10354114;28;20818;-78
2022/10/02 11:35:23;;;;;;;2.63;0.60;;;;;;;;;;10350122;28;20687;-78
2022/10/02 11:40:24;;;;;;;2.22;0.65;;;;;;;;;;10346612;28;20593;-78
2022/10/02 11:45:55;;;;;;;2.22;0.80;;;;;;;;;;10343322;28;20222;-77
2022/10/02 11:51:01;;;;;;;2.53;0.57;;;;;;;;;;10322896;28;20308;-78
2022/10/02 11:56:21;;;;;;;2.55;0.52;;;;;;;;;;10334921;28;20223;-78
2022/10/02 12:01:44;;;;;;;2.55;0.60;;;;;;;;;;10343097;28;20226;-79
2022/10/02 12:06:59;;;;;;;1.40;0.45;;;;;;;;;;10361162;28;20214;-78
2022/10/02 12:12:21;;;;;;;1.58;0.40;;;;;;;;;;10385588;28;20242;-77
2022/10/02 12:17:40;;;;;;;0.95;0.52;;;;;;;;;;10383202;28;20226;-78
2022/10/02 12:28:23;;;;;;;0.57;0.50;;;;;;;;;;10362655;28;20250;-78
2022/10/02 12:33:33;;;;;;;2.05;0.52;;;;;;;;;;10358202;28;20215;-78
2022/10/02 12:38:46;;;;;;;1.50;0.38;;;;;;;;;;10359440;28;20222;-78
2022/10/02 12:43:53;;;;;;;1.65;0.50;;;;;;;;;;10361140;28;20258;-77
2022/10/02 12:49:11;;;;;;;1.45;0.30;;;;;;;;;;10362618;28;20223;-78
2022/10/02 12:54:25;;;;;;;4.20;0.43;;;;;;;;;;10364165;28;20235;-77
2022/10/02 12:59:33;;;;;;;0.43;0.43;;;;;;;;;;10365167;28;21115;-77
2022/10/02 13:04:44;;;;;;;2.78;0.47;;;;;;;;;;10364061;28;20824;-79
2022/10/02 13:10:04;;;;;;;1.05;0.50;;;;;;;;;;10379838;28;20231;-77
2022/10/02 13:15:23;;;;;;;3.60;0.60;;;;;;;;;;10397841;28;20261;-78
2022/10/02 13:20:40;;;;;;;1.92;0.68;;;;;;;;;;10376676;28;20222;-77
2022/10/02 13:25:57;;;;;;;3.17;0.55;;;;;;;;;;10400441;28;20214;-77
2022/10/02 13:30:58;;;;;;;3.67;0.55;;;;;;;;;;10402403;28;20268;-80
2022/10/02 13:36:08;;;;;;;2.60;0.40;;;;;;;;;;10403862;28;20226;-79
2022/10/02 13:41:13;;;;;;;1.45;0.63;;;;;;;;;;10379579;28;20276;-78
2022/10/02 13:46:28;;;;;;;1.85;0.60;;;;;;;;;;10396753;28;20214;-79
2022/10/02 13:51:45;;;;;;;0.93;0.28;;;;;;;;;;10380522;28;20246;-79
2022/10/02 13:56:55;;;;;;;0.22;0.22;;;;;;;;;;10383362;28;20231;-78
2022/10/02 14:01:56;;;;;;;1.63;0.38;;;;;;;;;;10327591;28;20223;-78
2022/10/02 14:07:13;;;;;;;0.60;0.25;;;;;;;;;;10337288;28;20710;-79
2022/10/02 14:12:24;;;;;;;0.82;0.40;;;;;;;;;;10353985;28;20762;-78
2022/10/02 14:17:38;;;;;;;1.05;0.30;;;;;;;;;;10394731;28;20318;-78
2022/10/02 14:22:58;;;;;;;0.77;0.40;;;;;;;;;;10399477;28;20222;-77
2022/10/02 14:28:22;;;;;;;0.50;0.50;;;;;;;;;;10399808;28;20280;-78
2022/10/02 14:33:42;;;;;;;1.75;0.50;;;;;;;;;;10367859;28;20219;-78
2022/10/02 14:38:48;;;;;;;0.50;0.50;;;;;;;;;;10401484;28;20623;-78
2022/10/02 14:44:09;;;;;;;0.40;0.40;;;;;;;;;;10362527;28;20651;-77
2022/10/02 14:49:19;;;;;;;2.20;0.38;;;;;;;;;;10384693;28;20220;-78
2022/10/02 14:54:24;;;;;;;1.17;0.70;;;;;;;;;;10392431;28;20607;-77
2022/10/02 14:59:42;;;;;;;3.38;0.93;;;;;;;;;;10383600;28;20316;-77
2022/10/02 15:04:43;;;;;;;1.65;0.40;;;;;;;;;;10388461;28;20211;-78
2022/10/02 15:10:00;;;;;;;0.70;0.35;;;;;;;;;;10386907;28;20751;-77
2022/10/02 15:15:06;;;;;;;1.92;0.60;;;;;;;;;;10381149;28;20448;-77
2022/10/02 15:20:28;;;;;;;4.50;0.63;;;;;;;;;;10399480;28;20213;-77
2022/10/02 15:25:32;;;;;;;2.78;0.38;;;;;;;;;;10391546;28;20608;-77
2022/10/02 15:30:38;;;;;;;2.65;0.47;;;;;;;;;;10413066;28;20214;-78
2022/10/02 15:35:45;;;;;;;2.55;0.68;;;;;;;;;;10432730;28;20227;-80
2022/10/02 15:40:52;;;;;;;0.52;0.52;;;;;;;;;;10410215;28;20223;-79
2022/10/02 15:46:05;;;;;;;0.25;0.25;;;;;;;;;;10408881;28;20248;-80
2022/10/02 15:51:15;;;;;;;3.42;0.73;;;;;;;;;;10397105;28;20234;-80
2022/10/02 15:56:34;;;;;;;2.45;0.43;;;;;;;;;;10395727;28;20222;-80
2022/10/02 16:01:44;;;;;;;1.52;0.45;;;;;;;;;;10398421;28;20210;-80
2022/10/02 16:07:08;;;;;;;0.40;0.40;;;;;;;;;;10398450;28;20222;-79
2022/10/02 16:12:17;;;;;;;1.15;0.40;;;;;;;;;;10383465;28;20223;-79
2022/10/02 16:17:36;;;;;;;4.22;0.45;;;;;;;;;;10405247;28;20265;-78
2022/10/02 16:22:47;;;;;;;0.80;0.32;;;;;;;;;;10408146;28;20224;-79
2022/10/02 16:27:51;;;;;;;2.40;0.70;;;;;;;;;;10396399;28;20301;-80
2022/10/02 16:33:01;;;;;;;1.27;0.30;;;;;;;;;;10414236;28;20595;-78
2022/10/02 16:38:03;;;;;;;0.30;0.30;;;;;;;;;;10416065;28;20210;-79
2022/10/02 16:43:28;;;;;;;0.20;0.20;;;;;;;;;;10405816;28;20219;-79
2022/10/02 16:48:49;;;;;;;2.15;0.40;;;;;;;;;;10361163;28;20215;-77
2022/10/02 16:53:56;;;;;;;0.43;0.30;;;;;;;;;;10400429;28;20214;-78
2022/10/02 16:59:30;;;;;;;2.63;0.40;;;;;;;;;;10416420;28;20505;-80
2022/10/02 17:04:54;;;;;;;3.13;0.60;;;;;;;;;;10389727;28;20288;-80
2022/10/02 17:10:13;;;;;;;0.68;0.38;;;;;;;;;;10411301;28;20230;-80
2022/10/02 17:15:14;;;;;;;4.00;0.40;;;;;;;;;;10404143;28;20218;-79
2022/10/02 17:20:23;;;;;;;1.33;0.68;;;;;;;;;;10411856;28;20579;-79
2022/10/02 17:25:28;;;;;;;8.82;0.68;;;;;;;;;;10409592;28;20179;-79
2022/10/02 17:30:43;;;;;;;5.22;0.77;;;;;;;;;;10406008;28;20614;-79
2022/10/02 17:35:44;;;;;;;1.95;0.40;;;;;;;;;;10400824;28;20295;-78
2022/10/02 17:40:57;;;;;;;2.63;0.60;;;;;;;;;;10407123;28;20661;-78
2022/10/02 17:46:01;;;;;;;2.72;0.90;;;;;;;;;;10388232;28;20215;-79
2022/10/02 17:51:10;;;;;;;2.05;0.65;;;;;;;;;;10396490;28;20749;-79
2022/10/02 17:56:26;;;;;;;1.65;0.55;;;;;;;;;;10422123;28;20241;-79
2022/10/02 18:01:43;;;;;;;1.70;0.57;;;;;;;;;;10389060;28;20237;-79
2022/10/02 18:07:09;;;;;;;0.60;0.60;;;;;;;;;;10377869;28;20210;-79
2022/10/02 18:12:13;;;;;;;0.38;0.38;;;;;;;;;;10381052;28;20226;-78
2022/10/02 18:17:31;;;;;;;2.25;0.40;;;;;;;;;;10385492;28;20215;-79
2022/10/02 18:22:49;;;;;;;1.80;0.52;;;;;;;;;;10395065;28;20263;-79
2022/10/02 18:27:57;;;;;;;4.18;0.43;;;;;;;;;;10386813;28;20330;-79
2022/10/02 18:33:23;;;;;;;2.50;0.60;;;;;;;;;;10396041;28;20218;-79
2022/10/02 18:38:29;;;;;;;2.83;0.47;;;;;;;;;;10396911;28;20222;-78
2022/10/02 18:43:37;;;;;;;2.03;0.30;;;;;;;;;;10391758;28;20207;-78
2022/10/02 18:48:39;;;;;;;3.83;0.40;;;;;;;;;;10386269;28;20571;-78
2022/10/02 18:53:47;;;;;;;0.47;0.47;;;;;;;;;;10383649;28;20222;-78
2022/10/02 18:58:52;;;;;;;1.33;0.30;;;;;;;;;;10386436;28;20233;-79
2022/10/02 19:03:53;;;;;;;3.00;0.43;;;;;;;;;;10369432;28;20250;-77
2022/10/02 19:09:01;;;;;;;0.95;0.50;;;;;;;;;;10390949;28;20761;-77
2022/10/02 19:14:24;;;;;;;3.22;0.73;;;;;;;;;;10376117;28;20234;-77
2022/10/02 19:19:26;;;;;;;1.35;0.60;;;;;;;;;;10387433;28;20210;-77
2022/10/02 19:24:30;;;;;;;2.58;0.32;;;;;;;;;;10385665;28;20458;-78
2022/10/02 19:29:45;;;;;;;1.38;0.75;;;;;;;;;;10387341;28;20229;-77
2022/10/02 19:34:48;;;;;;;3.10;0.40;;;;;;;;;;10386115;28;20258;-78
2022/10/02 19:39:53;;;;;;;5.05;0.55;;;;;;;;;;10371054;28;20410;-77
2022/10/02 19:45:02;;;;;;;0.55;0.50;;;;;;;;;;10363654;28;20215;-77
2022/10/02 19:50:07;;;;;;;7.72;0.47;;;;;;;;;;10365324;28;20219;-76
2022/10/02 19:55:26;;;;;;;4.85;0.70;;;;;;;;;;10350446;28;20585;-77
2022/10/02 20:00:27;;;;;;;6.15;0.30;;;;;;;;;;10382091;28;20215;-76
2022/10/02 20:05:30;;;;;;;5.57;0.68;;;;;;;;;;10376623;28;20273;-77
2022/10/02 20:10:34;;;;;;;4.85;0.73;;;;;;;;;;10387512;28;20353;-77
2022/10/02 20:20:59;;;;;;;0.45;0.40;;;;;;;;;;10405201;28;20223;-77
2022/10/02 20:26:07;;;;;;;9.70;0.88;;;;;;;;;;10407262;28;20222;-77
2022/10/02 20:31:17;;;;;;;0.88;0.50;;;;;;;;;;10408095;28;20313;-77
2022/10/02 20:36:20;;;;;;;2.10;0.88;;;;;;;;;;10410151;28;20230;-76
2022/10/02 20:41:22;;;;;;;4.30;0.63;;;;;;;;;;10390314;28;20219;-77
2022/10/02 20:46:38;;;;;;;3.97;0.63;;;;;;;;;;10400542;28;20206;-76
2022/10/02 20:51:46;;;;;;;5.03;0.85;;;;;;;;;;10404166;28;20222;-77
2022/10/02 20:57:05;;;;;;;6.53;0.75;;;;;;;;;;10388809;28;20227;-77
2022/10/02 21:02:20;;;;;;;2.30;0.32;;;;;;;;;;10403560;28;20223;-77
2022/10/02 21:07:42;;;;;;;13.75;0.85;;;;;;;;;;10401499;28;20226;-76
2022/10/02 21:12:59;;;;;;;1.42;0.50;;;;;;;;;;10408731;28;21020;-77
2022/10/02 21:18:06;;;;;;;5.90;0.98;;;;;;;;;;10407720;28;20738;-77
2022/10/02 21:23:17;;;;;;;6.78;1.02;;;;;;;;;;10406802;28;20868;-77
2022/10/02 21:28:40;;;;;;;3.03;0.73;;;;;;;;;;10405376;28;20223;-76
2022/10/02 21:33:49;;;;;;;3.42;0.50;;;;;;;;;;10404060;28;20690;-77
2022/10/02 21:39:14;;;;;;;3.83;0.93;;;;;;;;;;10411922;28;20327;-77
2022/10/02 21:44:36;;;;;;;4.85;0.75;;;;;;;;;;10406678;28;20266;-76
2022/10/02 21:49:56;;;;;;;2.70;0.68;;;;;;;;;;10405488;28;20214;-76
2022/10/02 21:55:06;;;;;;;6.32;0.68;;;;;;;;;;10399673;28;20222;-77
2022/10/02 22:00:08;;;;;;;6.10;0.93;;;;;;;;;;10404867;28;20215;-77
2022/10/02 22:05:09;;;;;;;1.48;0.52;;;;;;;;;;10402891;28;20195;-78
2022/10/02 22:10:28;;;;;;;3.47;0.68;;;;;;;;;;10406668;28;20230;-78
2022/10/02 22:15:48;;;;;;;3.42;0.63;;;;;;;;;;10398695;28;20892;-77
2022/10/02 22:20:55;;;;;;;1.65;0.30;;;;;;;;;;10405522;28;20245;-78
2022/10/02 22:26:07;;;;;;;5.15;0.90;;;;;;;;;;10406632;28;20237;-77
2022/10/02 22:31:26;;;;;;;3.10;0.50;;;;;;;;;;10403309;28;20309;-78
2022/10/02 22:36:37;;;;;;;3.00;0.45;;;;;;;;;;10411065;28;20245;-78
2022/10/02 22:41:54;;;;;;;3.95;0.43;;;;;;;;;;10390226;28;20242;-77
2022/10/02 22:46:58;;;;;;;2.28;0.60;;;;;;;;;;10401879;28;20218;-78
2022/10/02 22:52:21;;;;;;;6.93;0.60;;;;;;;;;;10403241;28;20222;-78
2022/10/02 22:57:40;;;;;;;4.95;0.80;;;;;;;;;;10405978;28;20227;-78
2022/10/02 23:03:00;;;;;;;4.55;0.55;;;;;;;;;;10405777;28;20277;-78
2022/10/02 23:08:14;;;;;;;2.35;0.50;;;;;;;;;;10405899;28;20217;-78
2022/10/02 23:13:25;;;;;;;3.90;0.40;;;;;;;;;;10405366;28;20233;-78
2022/10/02 23:18:38;;;;;;;4.18;0.95;;;;;;;;;;10405300;28;20218;-78
2022/10/02 23:23:42;;;;;;;9.52;0.90;;;;;;;;;;10403415;28;20217;-78
2022/10/02 23:28:46;;;;;;;4.22;0.82;;;;;;;;;;10385462;28;20701;-79
2022/10/02 23:33:55;;;;;;;0.60;0.55;;;;;;;;;;10399835;28;20212;-78
2022/10/02 23:38:56;;;;;;;5.00;0.30;;;;;;;;;;10401107;28;20276;-78
2022/10/02 23:44:16;;;;;;;1.30;0.60;;;;;;;;;;10397318;28;20277;-78
2022/10/02 23:49:19;;;;;;;3.33;0.52;;;;;;;;;;10405144;28;20228;-77
2022/10/02 23:54:35;;;;;;;2.85;0.30;;;;;;;;;;10401838;28;20238;-79
